Medlin's Ranch, Nevada Weather observations

Data are for observation ending at time listed.
 Day   Time    Ave.   Ave.  Ave.  Vector   Max.   Stn.    Total    Solar   Ave.  
  of    of     Air    Rel.  Wind   Wind    Wind   Baro.  Precip.   Rad.    Soil  
Year   Day     Temp.  Hum.  Speed  Dir.    Gust   Pres.                    Temp. 
2014   (PST)    F      %     mph   deg.    mph     mb.     in.     W/m2     F   
------------------------------------------------------------------------------
 354   16:00   44.5    62    2.6   100      6.0    865     0.00      60    43.4
 354   17:00   42.3    68    1.4   131      3.2    866     0.00       8    43.4
 354   18:00   39.9    75    2.3   227      4.5    866     0.00       0    42.9
 354   19:00   37.0    80    2.3   258      3.7    866     0.00       0    42.3
 354   20:00   35.6    83    3.5   300      5.8    866     0.00       0    41.7
 354   21:00   34.6    84    3.7   281      5.3    867     0.00       0    41.1
 354   22:00   32.5    87    2.7   253      5.0    867     0.00       0    40.4
 354   23:00   30.6    90    1.9   326      4.2    867     0.00       0    39.8
 355    0:00   30.7    90    3.6   276      5.2    867     0.00       0    39.2
 355    1:00   30.4    91    3.0   292      6.6    867     0.00       0    38.6
 355    2:00   30.9    91    3.7   267      5.6    867     0.00       0    38.1
 355    3:00   31.8    89    3.6   301      6.9    867     0.00       0    37.7
 355    4:00   32.6    89    3.5   273      6.7    866     0.00       0    37.4
 355    5:00   32.1    90    3.5   267      5.6    866     0.00       0    37.2
 355    6:00   31.2    91    2.4   277      4.5    866     0.00       0    37.0
 355    7:00   32.0    91    4.3   295      7.2    866     0.00       0    36.8
 355    8:00   33.5    88    3.4   284      5.3    866     0.00      43    36.6
 355    9:00   38.4    82    2.6   291      5.6    866     0.00     143    36.6
 355   10:00   41.7    75    2.4    17      4.5    867     0.00     231    37.3
 355   11:00   45.4    66    0.9   347      3.4    867     0.00     321    38.6
 355   12:00   48.9    60    2.1   104      5.9    866     0.00     377    40.2
 355   13:00   50.9    56    3.0    87      6.3    865     0.00     374    42.0
 355   14:00   53.9    51    2.4    92      6.0    865     0.00     374    43.3
 355   15:00   54.8    49    4.2   157      7.0    864     0.00     162    43.8

Return to Medlin's Ranch, Nevada graphs page.


Western Regional Climate Center,wrcc@dri.edu